Time;durP1;ratioP1;P1;durP2;ratioP2;P2;SDS_P1;SDS_P2;PMS_P1;PMS_P2;Temp;Humidity;BMP_temperature;BMP_pressure;BME280_temperature;BME280_humidity;BME280_pressure;Samples;Min_cycle;Max_cycle;Signal;HPM_P1;HPM_P2
2023/11/29 07:07:53;;;;;;;9.05;5.95;;;;;;;;;;12831626;22;19993;-81
2023/11/29 07:12:55;;;;;;;7.80;5.32;;;;;;;;;;12925621;23;20095;-81
2023/11/29 07:17:56;;;;;;;8.10;4.85;;;;;;;;;;12924299;22;20012;-80
2023/11/29 07:22:57;;;;;;;9.27;5.50;;;;;;;;;;12924724;23;20019;-81
2023/11/29 07:27:58;;;;;;;;;;;;;;;;;;12924609;22;20030;-80
2023/11/29 07:32:59;;;;;;;5.73;3.97;;;;;;;;;;12923570;23;19957;-80
2023/11/29 07:38:00;;;;;;;8.13;5.57;;;;;;;;;;12927417;22;20007;-80
2023/11/29 07:43:01;;;;;;;;;;;;;;;;;;12923876;23;20007;-80
2023/11/29 07:48:03;;;;;;;9.52;6.15;;;;;;;;;;12923030;22;20335;-81
2023/11/29 07:53:04;;;;;;;;;;;;;;;;;;12921328;23;20008;-80
2023/11/29 07:58:05;;;;;;;3.97;2.77;;;;;;;;;;12908860;22;19900;-80
2023/11/29 08:03:12;;;;;;;4.20;2.00;;;;;;;;;;12913292;23;20000;-85
2023/11/29 08:08:13;;;;;;;6.03;3.30;;;;;;;;;;12924522;22;20012;-84
2023/11/29 08:13:14;;;;;;;;;;;;;;;;;;12948440;23;20007;-82
2023/11/29 08:18:15;;;;;;;8.00;5.37;;;;;;;;;;12946245;22;19942;-79
2023/11/29 08:23:17;;;;;;;7.03;4.70;;;;;;;;;;12957643;23;20219;-80
2023/11/29 08:28:18;;;;;;;5.63;3.67;;;;;;;;;;12940632;22;20442;-79
2023/11/29 08:33:19;;;;;;;;;;;;;;;;;;12933662;23;20004;-80
2023/11/29 08:38:20;;;;;;;6.30;4.65;;;;;;;;;;12936755;22;19991;-80
2023/11/29 08:43:21;;;;;;;8.07;5.63;;;;;;;;;;12934339;23;20000;-80
2023/11/29 08:48:22;;;;;;;4.30;3.00;;;;;;;;;;12938098;22;20095;-80
2023/11/29 08:53:23;;;;;;;8.23;4.93;;;;;;;;;;12940775;23;20068;-80
2023/11/29 08:58:25;;;;;;;6.78;4.90;;;;;;;;;;12930327;22;20319;-80
2023/11/29 09:03:26;;;;;;;4.90;3.28;;;;;;;;;;12930475;23;20004;-81
2023/11/29 09:08:27;;;;;;;3.90;2.70;;;;;;;;;;12929753;22;20011;-81
2023/11/29 09:13:29;;;;;;;4.80;3.50;;;;;;;;;;12932681;23;20004;-80
2023/11/29 09:18:30;;;;;;;6.05;3.83;;;;;;;;;;12930638;22;20010;-80
2023/11/29 09:23:34;;;;;;;5.03;4.18;;;;;;;;;;12931271;23;20011;-79
2023/11/29 09:28:36;;;;;;;3.05;2.33;;;;;;;;;;12930857;22;20353;-80
2023/11/29 09:33:37;;;;;;;4.13;2.70;;;;;;;;;;12934345;23;20000;-79
2023/11/29 09:38:41;;;;;;;5.75;3.53;;;;;;;;;;12935419;22;20064;-78
2023/11/29 09:43:44;;;;;;;4.20;2.92;;;;;;;;;;12934538;23;20007;-80
2023/11/29 09:48:45;;;;;;;6.28;4.32;;;;;;;;;;12938454;22;20015;-77
2023/11/29 09:53:46;;;;;;;5.05;2.60;;;;;;;;;;12931741;23;20023;-80
2023/11/29 09:58:47;;;;;;;4.43;2.63;;;;;;;;;;12929945;22;20001;-79
2023/11/29 10:04:01;;;;;;;6.82;5.05;;;;;;;;;;12930438;23;20365;-79
2023/11/29 10:09:05;;;;;;;3.67;2.58;;;;;;;;;;12930918;22;20012;-79
2023/11/29 10:14:06;;;;;;;4.30;3.72;;;;;;;;;;12931706;23;20091;-80
2023/11/29 10:19:11;;;;;;;4.00;2.60;;;;;;;;;;12930666;22;20003;-79
2023/11/29 10:24:17;;;;;;;3.85;2.40;;;;;;;;;;12929785;23;20079;-78
2023/11/29 10:29:18;;;;;;;3.88;2.05;;;;;;;;;;12936642;22;20020;-79
2023/11/29 10:34:19;;;;;;;4.93;3.05;;;;;;;;;;12966188;22;20046;-79
2023/11/29 10:39:24;;;;;;;4.45;1.90;;;;;;;;;;12937353;22;20004;-79
2023/11/29 10:44:29;;;;;;;8.68;5.45;;;;;;;;;;12934181;23;20000;-80
2023/11/29 10:49:33;;;;;;;4.45;2.80;;;;;;;;;;12933657;22;20000;-79
2023/11/29 10:54:34;;;;;;;4.25;3.33;;;;;;;;;;12938134;23;20337;-78
2023/11/29 10:59:37;;;;;;;4.50;2.85;;;;;;;;;;12939414;22;20011;-79
2023/11/29 11:04:43;;;;;;;2.75;1.60;;;;;;;;;;12933549;23;20468;-78
2023/11/29 11:09:44;;;;;;;2.45;2.00;;;;;;;;;;12932768;22;20012;-79
2023/11/29 11:14:47;;;;;;;3.97;2.47;;;;;;;;;;12935049;23;20495;-80
2023/11/29 11:19:48;;;;;;;6.50;3.10;;;;;;;;;;12935337;22;20104;-79
2023/11/29 11:25:02;;;;;;;3.15;2.03;;;;;;;;;;12933328;23;20004;-80
2023/11/29 11:30:19;;;;;;;3.85;2.47;;;;;;;;;;12933113;22;20000;-80
2023/11/29 11:35:27;;;;;;;5.60;2.80;;;;;;;;;;12938769;23;20059;-80
2023/11/29 11:40:32;;;;;;;3.47;2.05;;;;;;;;;;12936849;22;20000;-80
2023/11/29 11:45:36;;;;;;;2.92;1.70;;;;;;;;;;12936481;23;20004;-80
2023/11/29 11:50:37;;;;;;;3.28;1.80;;;;;;;;;;12935490;22;20006;-79
2023/11/29 11:55:40;;;;;;;3.38;2.47;;;;;;;;;;12933412;23;20011;-79
2023/11/29 12:00:42;;;;;;;4.32;1.90;;;;;;;;;;12939300;22;20002;-79
2023/11/29 12:05:43;;;;;;;3.05;1.73;;;;;;;;;;12938945;23;20015;-79
2023/11/29 12:10:44;;;;;;;2.70;1.88;;;;;;;;;;12936365;22;20016;-80
2023/11/29 12:15:45;;;;;;;3.05;1.50;;;;;;;;;;12931042;23;20442;-78
2023/11/29 12:20:49;;;;;;;3.00;1.85;;;;;;;;;;12932709;22;20004;-77
2023/11/29 12:25:57;;;;;;;2.70;1.58;;;;;;;;;;12930754;23;20008;-78
2023/11/29 12:30:58;;;;;;;2.75;1.15;;;;;;;;;;12931107;22;20000;-78
2023/11/29 12:35:59;;;;;;;4.15;1.70;;;;;;;;;;12933626;23;20079;-78
2023/11/29 12:41:00;;;;;;;;;;;;;;;;;;12933976;22;20007;-78
2023/11/29 12:46:01;;;;;;;4.45;3.47;;;;;;;;;;12931013;23;19986;-79
2023/11/29 12:51:03;;;;;;;3.50;1.70;;;;;;;;;;12930319;22;20035;-78
2023/11/29 12:56:04;;;;;;;3.40;1.98;;;;;;;;;;12929791;23;20462;-78
2023/11/29 13:01:05;;;;;;;;;;;;;;;;;;12933023;22;20398;-78
2023/11/29 13:06:06;;;;;;;3.33;2.00;;;;;;;;;;12934860;23;19931;-78
2023/11/29 13:11:08;;;;;;;2.92;1.52;;;;;;;;;;12932231;22;20031;-81
2023/11/29 13:16:11;;;;;;;;;;;;;;;;;;12912450;23;20043;-82
2023/11/29 13:21:12;;;;;;;1.88;1.20;;;;;;;;;;12866807;23;19961;-79
2023/11/29 13:26:13;;;;;;;;;;;;;;;;;;12873798;23;20330;-78
2023/11/29 13:31:14;;;;;;;2.65;1.27;;;;;;;;;;12842845;23;19983;-79
2023/11/29 13:36:15;;;;;;;2.05;1.50;;;;;;;;;;12843770;23;20008;-80
2023/11/29 13:41:16;;;;;;;5.00;1.88;;;;;;;;;;12842545;23;20439;-79
2023/11/29 13:46:18;;;;;;;2.42;1.55;;;;;;;;;;12843386;23;20023;-80
2023/11/29 13:51:19;;;;;;;2.10;1.33;;;;;;;;;;12843422;23;20019;-79
2023/11/29 13:56:20;;;;;;;2.97;1.60;;;;;;;;;;12844919;23;20083;-80
2023/11/29 14:01:21;;;;;;;4.03;1.55;;;;;;;;;;12846630;23;20020;-81
2023/11/29 14:06:22;;;;;;;2.67;1.48;;;;;;;;;;12874977;23;20028;-84
2023/11/29 14:11:23;;;;;;;;;;;;;;;;;;12845329;23;20378;-83
2023/11/29 14:16:24;;;;;;;2.95;1.40;;;;;;;;;;12848940;23;19940;-83
2023/11/29 14:21:26;;;;;;;2.80;1.75;;;;;;;;;;12846580;23;20000;-83
2023/11/29 14:26:27;;;;;;;3.13;1.70;;;;;;;;;;12851781;23;20024;-82
2023/11/29 14:31:28;;;;;;;;;;;;;;;;;;12886920;22;20084;-83
2023/11/29 14:36:29;;;;;;;3.80;2.30;;;;;;;;;;12869487;23;19911;-83
2023/11/29 14:41:30;;;;;;;;;;;;;;;;;;12847258;23;20008;-84
2023/11/29 14:46:31;;;;;;;2.58;1.85;;;;;;;;;;12846107;23;19899;-84
2023/11/29 14:51:32;;;;;;;2.38;1.65;;;;;;;;;;12844754;23;20012;-81
2023/11/29 14:56:33;;;;;;;;;;;;;;;;;;12844183;23;20011;-81
2023/11/29 15:01:35;;;;;;;2.38;1.50;;;;;;;;;;12867930;23;19979;-81
2023/11/29 15:06:36;;;;;;;2.53;1.35;;;;;;;;;;12845961;23;20316;-80
2023/11/29 15:11:37;;;;;;;4.30;1.85;;;;;;;;;;12847000;23;20040;-81
2023/11/29 15:16:38;;;;;;;;;;;;;;;;;;12846942;23;20004;-80
2023/11/29 15:21:39;;;;;;;4.05;1.88;;;;;;;;;;12846590;23;19900;-81
2023/11/29 15:26:50;;;;;;;6.18;2.20;;;;;;;;;;12848248;23;20011;-83
2023/11/29 15:31:51;;;;;;;3.80;1.98;;;;;;;;;;12875637;23;20062;-81
2023/11/29 15:36:52;;;;;;;;;;;;;;;;;;12848382;23;20012;-82
2023/11/29 15:41:53;;;;;;;5.05;2.08;;;;;;;;;;12858261;23;19934;-82
2023/11/29 15:46:54;;;;;;;2.88;1.75;;;;;;;;;;12865810;23;20011;-82
2023/11/29 15:52:15;;;;;;;4.40;2.00;;;;;;;;;;12861875;23;20008;-83
2023/11/29 15:57:34;;;;;;;4.82;1.90;;;;;;;;;;12886113;23;20032;-82
2023/11/29 16:02:38;;;;;;;3.20;1.90;;;;;;;;;;12863821;23;20096;-82
2023/11/29 16:07:55;;;;;;;4.32;1.67;;;;;;;;;;12889049;23;20075;-85
2023/11/29 16:12:57;;;;;;;3.80;1.90;;;;;;;;;;12863075;23;20039;-82
2023/11/29 16:18:02;;;;;;;3.20;1.90;;;;;;;;;;12860045;23;20051;-84
2023/11/29 16:23:22;;;;;;;3.17;1.90;;;;;;;;;;12859704;23;20031;-83
2023/11/29 16:28:27;;;;;;;3.40;2.20;;;;;;;;;;12859144;23;20067;-82
2023/11/29 16:33:29;;;;;;;4.18;2.28;;;;;;;;;;12887271;23;20255;-82
2023/11/29 16:38:51;;;;;;;2.85;1.88;;;;;;;;;;12861284;23;20001;-83
2023/11/29 16:43:53;;;;;;;4.18;2.10;;;;;;;;;;12858564;23;20015;-83
2023/11/29 16:48:54;;;;;;;4.25;2.28;;;;;;;;;;12861527;23;20008;-84
2023/11/29 16:59:31;;;;;;;3.22;2.10;;;;;;;;;;12870954;23;20004;-86
2023/11/29 17:10:18;;;;;;;3.70;2.50;;;;;;;;;;12870585;23;20008;-86
2023/11/29 17:16:01;;;;;;;3.55;2.47;;;;;;;;;;12792725;23;20020;-86
2023/11/29 17:21:03;;;;;;;4.93;2.80;;;;;;;;;;12874845;23;20012;-85
2023/11/29 17:26:29;;;;;;;5.75;3.53;;;;;;;;;;12844842;23;20058;-85
2023/11/29 17:49:10;;;;;;;4.07;2.65;;;;;;;;;;12560125;23;20454;-86
2023/11/29 17:54:23;;;;;;;4.40;2.72;;;;;;;;;;12560394;23;20018;-85
2023/11/29 19:08:59;;;;;;;4.18;3.38;;;;;;;;;;12875197;22;20043;-84
2023/11/29 19:14:20;;;;;;;5.13;2.90;;;;;;;;;;12855230;23;20023;-85
2023/11/29 19:19:22;;;;;;;4.57;3.08;;;;;;;;;;12906348;23;20062;-85
2023/11/29 19:24:24;;;;;;;4.85;3.20;;;;;;;;;;12884098;23;20004;-84
2023/11/29 19:29:26;;;;;;;3.80;2.92;;;;;;;;;;12912398;22;20000;-85
2023/11/29 19:34:28;;;;;;;3.33;2.60;;;;;;;;;;12914424;23;20012;-84
2023/11/29 19:39:29;;;;;;;4.22;2.92;;;;;;;;;;12911351;22;20004;-85
2023/11/29 19:44:30;;;;;;;;;;;;;;;;;;12915129;23;20050;-85
2023/11/29 19:49:36;;;;;;;4.78;3.42;;;;;;;;;;12914340;22;19903;-85
2023/11/29 19:54:37;;;;;;;3.22;2.63;;;;;;;;;;12917220;23;20008;-85
2023/11/29 19:59:43;;;;;;;;;;;;;;;;;;12918684;22;20004;-85
2023/11/29 20:04:46;;;;;;;5.40;3.05;;;;;;;;;;12918487;23;19923;-85
2023/11/29 20:09:48;;;;;;;3.92;3.10;;;;;;;;;;12920487;22;20472;-85
